Time;durP1;ratioP1;P1;durP2;ratioP2;P2;SDS_P1;SDS_P2;PMS_P1;PMS_P2;Temp;Humidity;BMP_temperature;BMP_pressure;BME280_temperature;BME280_humidity;BME280_pressure;Samples;Min_cycle;Max_cycle;Signal;HPM_P1;HPM_P2
2022/07/31 00:01:09;;;;;;;1.90;1.70;;;;;;;23.09;53.53;93565.00;6038434;23;20053;-92
2022/07/31 00:03:35;;;;;;;2.05;1.85;;;;;;;23.07;53.53;93554.50;6040311;23;20101;-92
2022/07/31 00:06:00;;;;;;;1.85;1.67;;;;;;;23.10;53.28;93560.94;6042196;23;20458;-92
2022/07/31 00:08:26;;;;;;;1.73;1.52;;;;;;;23.09;53.36;93567.75;6040635;23;20026;-92
2022/07/31 00:10:51;;;;;;;1.77;1.60;;;;;;;23.07;53.15;93562.75;6041332;23;20014;-92
2022/07/31 00:13:18;;;;;;;2.00;1.80;;;;;;;23.08;53.43;93567.00;6039385;23;20471;-92
2022/07/31 00:15:43;;;;;;;2.03;1.80;;;;;;;23.08;53.49;93569.75;6041246;23;20455;-93
2022/07/31 00:18:08;;;;;;;1.65;1.55;;;;;;;23.07;53.42;93581.31;6038682;23;20029;-92
2022/07/31 00:20:34;;;;;;;2.47;2.00;;;;;;;23.09;53.25;93582.28;6030539;23;20030;-93
2022/07/31 00:22:59;;;;;;;2.08;1.67;;;;;;;23.07;53.53;93567.53;6041590;23;20089;-94
2022/07/31 00:25:25;;;;;;;1.88;1.60;;;;;;;23.07;53.46;93573.06;6042614;23;20022;-92
2022/07/31 00:27:50;;;;;;;2.03;1.73;;;;;;;23.08;53.28;93572.53;6064147;23;20115;-92
2022/07/31 00:30:16;;;;;;;2.08;1.88;;;;;;;23.08;53.52;93563.50;6032072;23;20049;-92
2022/07/31 00:32:42;;;;;;;1.65;1.55;;;;;;;23.07;53.30;93575.81;6040632;23;20033;-92
2022/07/31 00:35:08;;;;;;;1.50;1.40;;;;;;;23.07;53.27;93575.81;6041628;23;20026;-93
2022/07/31 00:37:36;;;;;;;1.95;1.45;;;;;;;23.06;53.55;93574.34;6041393;23;20019;-93
2022/07/31 00:40:05;;;;;;;2.00;1.80;;;;;;;23.06;53.33;93564.03;6065678;23;20011;-93
2022/07/31 00:42:30;;;;;;;1.58;1.48;;;;;;;23.06;53.45;93568.81;6042021;23;20078;-93
2022/07/31 00:44:56;;;;;;;2.13;1.50;;;;;;;23.05;53.42;93565.31;6041256;23;20398;-92
2022/07/31 00:47:21;;;;;;;2.10;1.90;;;;;;;23.06;53.40;93566.81;6039591;23;20026;-92
2022/07/31 00:49:47;;;;;;;1.70;1.60;;;;;;;23.05;53.39;93570.84;6040813;23;20010;-93
2022/07/31 00:52:12;;;;;;;1.42;1.33;;;;;;;23.06;53.36;93566.06;6033639;23;20049;-94
2022/07/31 00:54:38;;;;;;;3.33;2.22;;;;;;;23.06;53.29;93563.31;6040427;23;20022;-92
2022/07/31 00:57:04;;;;;;;1.80;1.70;;;;;;;23.04;53.47;93560.34;6039888;23;20347;-94
2022/07/31 00:59:29;;;;;;;1.90;1.80;;;;;;;23.06;53.41;93560.53;6042756;23;20560;-94
2022/07/31 01:01:55;;;;;;;1.95;1.80;;;;;;;23.05;53.31;93570.84;6036529;23;20097;-92
2022/07/31 01:04:20;;;;;;;1.95;1.50;;;;;;;23.04;53.15;93561.09;6041421;23;20018;-93
2022/07/31 01:06:47;;;;;;;1.92;1.52;;;;;;;23.03;53.04;93562.34;6043116;23;20109;-92
2022/07/31 01:09:13;;;;;;;1.63;1.52;;;;;;;23.03;53.31;93559.59;6041063;23;20026;-93
2022/07/31 01:11:51;;;;;;;1.80;1.65;;;;;;;23.04;53.31;93565.84;6040595;23;20527;-93
2022/07/31 01:14:18;;;;;;;1.90;1.60;;;;;;;23.04;53.25;93566.59;6061917;23;20109;-92
2022/07/31 01:16:45;;;;;;;1.77;1.63;;;;;;;23.04;53.23;93566.59;6042220;23;20482;-93
2022/07/31 01:19:23;;;;;;;1.75;1.65;;;;;;;23.01;53.21;93556.63;6042291;23;20022;-91
2022/07/31 01:22:26;;;;;;;1.70;1.50;;;;;;;23.02;53.44;93563.63;6063752;23;20081;-92
2022/07/31 01:25:00;;;;;;;2.03;1.88;;;;;;;23.03;53.07;93558.84;6104258;23;21132;-94
2022/07/31 01:27:31;;;;;;;2.00;1.80;;;;;;;23.02;53.06;93560.13;6064904;23;20030;-92
2022/07/31 01:29:58;;;;;;;2.20;1.92;;;;;;;23.02;53.43;93568.41;6040730;23;20025;-93
2022/07/31 01:32:37;;;;;;;1.60;1.50;;;;;;;23.00;53.32;93566.19;6042623;23;20362;-93
2022/07/31 01:35:10;;;;;;;1.75;1.65;;;;;;;23.02;53.20;93569.16;6041574;23;20102;-92
2022/07/31 01:37:39;;;;;;;1.65;1.55;;;;;;;23.01;53.19;93581.44;6064910;23;20018;-91
2022/07/31 01:40:09;;;;;;;1.85;1.67;;;;;;;23.00;53.33;93579.97;6040396;23;20438;-94
2022/07/31 01:42:36;;;;;;;2.10;1.90;;;;;;;23.01;53.05;93572.44;6032512;23;20046;-93
2022/07/31 01:45:02;;;;;;;1.85;1.75;;;;;;;23.00;53.27;93577.22;6040235;23;20106;-93
2022/07/31 01:47:28;;;;;;;2.28;1.90;;;;;;;23.00;53.40;93568.19;6039838;23;20030;-92
2022/07/31 01:49:54;;;;;;;2.67;1.88;;;;;;;23.01;53.17;93566.94;6041513;23;20350;-93
2022/07/31 01:52:19;;;;;;;1.88;1.75;;;;;;;23.01;53.34;93570.41;6042039;23;20029;-92
2022/07/31 01:54:45;;;;;;;2.10;1.90;;;;;;;23.01;53.21;93564.16;6040537;23;20029;-91
2022/07/31 01:57:10;;;;;;;1.85;1.73;;;;;;;23.01;53.11;93569.69;6042206;23;20506;-93
2022/07/31 01:59:36;;;;;;;1.92;1.80;;;;;;;23.01;53.27;93569.69;6040201;23;20025;-95
2022/07/31 02:02:03;;;;;;;2.20;1.70;;;;;;;23.00;53.05;93577.22;6043091;23;20018;-93
2022/07/31 02:04:28;;;;;;;1.70;1.60;;;;;;;22.99;53.43;93578.50;6042947;23;20440;-93
2022/07/31 02:06:54;;;;;;;1.70;1.40;;;;;;;22.99;53.46;93583.25;6043898;23;20074;-94
2022/07/31 02:09:19;;;;;;;1.70;1.60;;;;;;;23.00;53.13;93585.50;6043211;23;20026;-93
2022/07/31 02:11:45;;;;;;;1.98;1.77;;;;;;;23.00;53.44;93573.72;6041830;23;20011;-95
2022/07/31 02:14:12;;;;;;;1.60;1.50;;;;;;;22.99;53.15;93575.00;6041185;23;20022;-93
2022/07/31 02:16:39;;;;;;;2.05;1.65;;;;;;;23.00;53.08;93587.50;6043926;23;20027;-92
2022/07/31 02:19:04;;;;;;;1.75;1.65;;;;;;;22.98;53.16;93577.00;6042987;23;20105;-93
2022/07/31 02:21:30;;;;;;;2.15;1.95;;;;;;;23.00;53.19;93576.47;6042648;23;20042;-94
2022/07/31 02:23:56;;;;;;;1.80;1.67;;;;;;;23.00;53.09;93570.97;6039965;23;20011;-94
2022/07/31 02:26:21;;;;;;;2.20;1.88;;;;;;;22.99;53.22;93567.47;6043961;23;20077;-92
2022/07/31 02:28:48;;;;;;;1.77;1.67;;;;;;;23.00;53.14;93568.94;6041458;23;20477;-92
2022/07/31 02:31:14;;;;;;;1.80;1.67;;;;;;;22.99;53.04;93572.22;6043191;23;20053;-94
2022/07/31 02:33:41;;;;;;;2.03;1.55;;;;;;;22.99;53.22;93563.97;6041003;23;20018;-93
2022/07/31 02:36:07;;;;;;;1.90;1.55;;;;;;;22.98;53.00;93562.47;6041998;23;20021;-92
2022/07/31 02:38:33;;;;;;;2.22;1.80;;;;;;;22.98;53.01;93571.50;6065552;23;20018;-92
2022/07/31 02:41:00;;;;;;;1.88;1.60;;;;;;;23.00;52.94;93574.47;6044244;23;20085;-93
2022/07/31 02:43:25;;;;;;;1.67;1.50;;;;;;;22.98;53.03;93563.22;6042536;23;20030;-94
2022/07/31 02:45:51;;;;;;;1.80;1.70;;;;;;;22.99;53.15;93561.22;6042025;23;20089;-94
2022/07/31 02:48:16;;;;;;;2.00;1.70;;;;;;;22.96;53.08;93568.53;6041717;23;20029;-94
2022/07/31 02:50:42;;;;;;;2.13;1.95;;;;;;;22.99;53.16;93575.72;6042013;23;20030;-93
2022/07/31 02:53:08;;;;;;;1.60;1.45;;;;;;;22.97;53.20;93566.50;6043831;23;20109;-93
2022/07/31 02:55:34;;;;;;;1.83;1.73;;;;;;;22.96;53.05;93565.78;6041047;23;20037;-92
2022/07/31 02:58:00;;;;;;;2.20;2.00;;;;;;;22.96;53.11;93560.25;6042023;23;20022;-92
2022/07/31 03:00:26;;;;;;;2.13;1.65;;;;;;;22.97;53.16;93566.50;6010630;23;20534;-92
2022/07/31 03:02:53;;;;;;;1.92;1.70;;;;;;;22.97;52.86;93564.50;5981565;23;20015;-93
2022/07/31 03:05:19;;;;;;;1.67;1.55;;;;;;;22.97;53.05;93561.75;6034771;23;20018;-93
2022/07/31 03:07:44;;;;;;;1.90;1.60;;;;;;;22.96;53.16;93565.03;5989694;23;20348;-94
2022/07/31 03:10:10;;;;;;;1.98;1.77;;;;;;;22.97;53.05;93561.00;5990888;23;20022;-93
2022/07/31 03:12:38;;;;;;;1.80;1.58;;;;;;;22.98;53.10;93556.97;5986527;23;20521;-92
2022/07/31 03:15:07;;;;;;;1.98;1.77;;;;;;;22.95;53.11;93566.34;5989043;23;20023;-92
2022/07/31 03:17:34;;;;;;;2.00;1.83;;;;;;;22.96;52.98;93565.03;6036433;23;20019;-92
2022/07/31 03:20:00;;;;;;;2.28;2.08;;;;;;;22.95;53.20;93567.06;6033729;23;20026;-93
2022/07/31 03:22:25;;;;;;;1.63;1.52;;;;;;;22.95;53.08;93564.28;6037711;23;20375;-92
2022/07/31 03:24:52;;;;;;;2.28;1.48;;;;;;;22.95;52.92;93561.53;6032986;23;20021;-93
2022/07/31 03:27:17;;;;;;;1.98;1.80;;;;;;;22.94;52.97;93565.59;5986116;23;20046;-93
2022/07/31 03:29:43;;;;;;;1.70;1.58;;;;;;;22.95;53.24;93561.53;6035551;23;20046;-92
2022/07/31 03:32:08;;;;;;;1.90;1.70;;;;;;;22.95;53.10;93552.56;6030193;23;20022;-95
2022/07/31 03:34:34;;;;;;;2.15;1.95;;;;;;;22.96;53.05;93554.75;6040190;23;20442;-91
2022/07/31 03:36:59;;;;;;;3.70;1.80;;;;;;;22.94;52.75;93543.53;6042062;23;20081;-94
2022/07/31 03:39:25;;;;;;;2.30;2.00;;;;;;;22.94;52.96;93543.53;6042560;23;20026;-92
2022/07/31 03:41:50;;;;;;;2.00;1.80;;;;;;;22.94;52.92;93548.31;6038890;23;20025;-94
2022/07/31 03:44:17;;;;;;;2.13;1.63;;;;;;;22.95;52.85;93544.28;6041678;23;20014;-93
2022/07/31 03:46:43;;;;;;;1.63;1.52;;;;;;;22.94;53.17;93546.31;6043437;23;20026;-92
2022/07/31 03:49:08;;;;;;;1.95;1.60;;;;;;;22.94;52.88;93545.56;6042625;23;20033;-93
2022/07/31 03:51:34;;;;;;;1.90;1.60;;;;;;;22.95;52.76;93545.00;6043359;23;20041;-92
2022/07/31 03:53:59;;;;;;;1.90;1.77;;;;;;;22.93;52.99;93549.59;6040120;23;20445;-93
2022/07/31 03:56:25;;;;;;;1.95;1.80;;;;;;;22.95;53.04;93553.25;6044165;23;20459;-93
2022/07/31 03:58:50;;;;;;;1.90;1.70;;;;;;;22.92;53.21;93554.38;6035462;23;20037;-93
2022/07/31 04:01:17;;;;;;;2.17;1.73;;;;;;;22.95;52.83;93558.78;6043138;23;20459;-93
2022/07/31 04:03:42;;;;;;;1.92;1.73;;;;;;;22.94;52.84;93560.09;6041713;23;20090;-92
2022/07/31 04:06:07;;;;;;;2.00;1.80;;;;;;;22.96;52.79;93560.25;6041888;23;20193;-94
2022/07/31 04:08:33;;;;;;;2.10;1.90;;;;;;;22.96;53.08;93556.75;6038987;23;20064;-92
2022/07/31 04:10:58;;;;;;;1.73;1.63;;;;;;;22.95;52.66;93564.28;6041168;23;20014;-94
2022/07/31 04:13:24;;;;;;;1.67;1.58;;;;;;;22.99;52.67;93552.94;6043198;23;20023;-93
2022/07/31 04:15:49;;;;;;;2.15;1.80;;;;;;;23.01;52.65;93553.13;6039777;23;20018;-91
2022/07/31 04:18:15;;;;;;;2.22;1.98;;;;;;;23.02;52.69;93560.88;6039427;23;20025;-92
2022/07/31 04:20:40;;;;;;;2.50;2.05;;;;;;;23.08;52.46;93561.50;6041268;23;20131;-93
2022/07/31 04:23:06;;;;;;;2.40;2.20;;;;;;;23.10;52.34;93553.41;6041873;23;20077;-92
2022/07/31 04:25:32;;;;;;;1.65;1.55;;;;;;;23.10;52.59;93563.72;6042389;23;20037;-93
2022/07/31 04:27:58;;;;;;;1.55;1.45;;;;;;;23.13;52.53;93566.13;6039934;23;20137;-92
2022/07/31 04:30:24;;;;;;;3.30;1.77;;;;;;;23.16;52.21;93567.81;6044031;23;20109;-93
2022/07/31 04:32:49;;;;;;;2.60;1.77;;;;;;;23.17;52.08;93561.00;6038057;23;20028;-93
2022/07/31 04:35:15;;;;;;;2.30;1.92;;;;;;;23.18;52.26;93573.50;6043187;23;20046;-94
2022/07/31 04:37:40;;;;;;;1.90;1.70;;;;;;;23.19;52.40;93563.22;6042580;23;20404;-92
2022/07/31 04:40:06;;;;;;;2.15;1.75;;;;;;;23.16;52.27;93561.56;6039491;23;20083;-93
2022/07/31 04:42:33;;;;;;;1.65;1.55;;;;;;;23.14;52.15;93561.38;6041061;23;20326;-94
2022/07/31 04:44:58;;;;;;;1.63;1.40;;;;;;;23.18;52.29;93573.50;6040243;23;20024;-92
2022/07/31 04:47:24;;;;;;;1.70;1.60;;;;;;;23.18;52.13;93570.00;6042753;23;20015;-95
2022/07/31 04:49:49;;;;;;;2.13;1.63;;;;;;;23.17;52.19;93565.78;6030646;23;20059;-93
2022/07/31 04:52:15;;;;;;;1.50;1.40;;;;;;;23.17;52.20;93580.31;6035525;23;20030;-93
2022/07/31 04:54:40;;;;;;;1.83;1.55;;;;;;;23.16;52.17;93578.13;6038699;23;20224;-95
2022/07/31 04:57:06;;;;;;;1.50;1.30;;;;;;;23.16;52.32;93584.38;6038804;23;20015;-94
2022/07/31 04:59:31;;;;;;;1.60;1.50;;;;;;;23.21;52.11;93582.72;6036400;23;20022;-94
2022/07/31 05:01:57;;;;;;;1.30;1.20;;;;;;;23.22;52.11;93582.19;6031927;23;20042;-93
2022/07/31 05:04:22;;;;;;;1.50;1.38;;;;;;;23.19;52.12;93586.03;6042526;23;20038;-95
2022/07/31 05:06:49;;;;;;;1.50;1.38;;;;;;;23.23;52.21;93597.47;6038819;23;20022;-92
2022/07/31 05:09:16;;;;;;;1.40;1.30;;;;;;;23.23;51.96;93594.72;6042523;23;20080;-94
2022/07/31 05:11:42;;;;;;;1.70;1.50;;;;;;;23.21;52.14;93588.25;6039923;23;20014;-92
2022/07/31 05:14:08;;;;;;;1.55;1.40;;;;;;;23.22;52.13;93595.25;6037548;23;20032;-93
2022/07/31 05:16:34;;;;;;;1.33;1.23;;;;;;;23.21;51.87;93588.25;6040404;23;20097;-94
2022/07/31 05:18:59;;;;;;;1.90;1.38;;;;;;;23.21;52.14;93583.47;6040152;23;20022;-92
2022/07/31 05:21:29;;;;;;;1.63;1.52;;;;;;;23.24;51.94;93593.44;6040521;23;20061;-93
2022/07/31 05:23:55;;;;;;;1.40;1.30;;;;;;;23.24;51.97;93585.16;6010733;23;20015;-92
2022/07/31 05:26:20;;;;;;;1.60;1.13;;;;;;;23.26;52.09;93592.91;5988520;23;20113;-93
2022/07/31 05:28:48;;;;;;;1.30;1.10;;;;;;;23.27;52.18;93590.88;6030004;23;20049;-92
2022/07/31 05:31:13;;;;;;;1.30;1.20;;;;;;;23.29;51.70;93591.81;5986946;23;20027;-93
2022/07/31 05:33:39;;;;;;;1.38;1.27;;;;;;;23.29;51.92;93591.81;5987094;23;20070;-95
2022/07/31 05:36:07;;;;;;;1.15;1.05;;;;;;;23.29;52.19;93593.84;5984271;23;20086;-92
2022/07/31 05:38:32;;;;;;;1.20;1.10;;;;;;;23.31;51.93;93592.03;6034224;23;20105;-94
2022/07/31 05:40:58;;;;;;;1.20;1.10;;;;;;;23.33;51.96;93591.50;6034095;23;20027;-93
2022/07/31 05:43:23;;;;;;;1.30;1.20;;;;;;;23.32;51.58;93593.50;5988878;23;20034;-93
2022/07/31 05:45:49;;;;;;;1.05;0.95;;;;;;;23.33;51.82;93599.75;5989872;23;20022;-93
2022/07/31 05:48:16;;;;;;;1.23;1.10;;;;;;;23.35;51.57;93586.19;6010307;23;20044;-93
2022/07/31 05:50:42;;;;;;;1.40;1.30;;;;;;;23.35;51.91;93589.69;5989576;23;20077;-94
2022/07/31 05:53:10;;;;;;;1.15;1.05;;;;;;;23.36;51.73;93591.16;6032724;23;20023;-92
2022/07/31 05:55:36;;;;;;;1.13;1.02;;;;;;;23.39;51.64;93594.84;6024481;23;20029;-91
2022/07/31 05:58:02;;;;;;;1.27;1.17;;;;;;;23.41;51.63;93590.25;6038312;23;20014;-92
2022/07/31 06:00:29;;;;;;;1.02;0.93;;;;;;;23.41;51.71;93592.28;6040390;23;20018;-93
2022/07/31 06:02:55;;;;;;;1.35;1.25;;;;;;;23.42;51.76;93591.75;6008627;23;20018;-94
2022/07/31 06:05:21;;;;;;;1.02;0.93;;;;;;;23.42;51.65;93582.72;6036481;23;20580;-93
2022/07/31 06:07:46;;;;;;;1.73;1.30;;;;;;;23.45;51.50;93592.69;5987220;23;20093;-92
2022/07/31 06:10:12;;;;;;;1.77;1.50;;;;;;;23.45;51.63;93587.16;5989329;23;20031;-95
2022/07/31 06:12:37;;;;;;;0.80;0.80;;;;;;;23.45;51.62;93595.44;5989823;23;20019;-92
2022/07/31 06:15:03;;;;;;;1.70;1.40;;;;;;;23.46;51.41;93594.91;5987736;23;20015;-91
2022/07/31 06:17:28;;;;;;;1.27;1.15;;;;;;;23.46;51.46;93591.41;6034348;23;20022;-92
2022/07/31 06:19:54;;;;;;;1.45;1.30;;;;;;;23.49;51.58;93593.81;5985078;23;20027;-92
2022/07/31 06:22:19;;;;;;;1.63;1.30;;;;;;;23.48;51.40;93589.59;6033097;23;20038;-93
2022/07/31 06:24:44;;;;;;;1.35;1.25;;;;;;;23.53;51.41;93591.50;6035551;23;20033;-95
2022/07/31 06:27:10;;;;;;;1.20;1.10;;;;;;;23.53;51.42;93599.03;5988160;23;20552;-93
2022/07/31 06:29:36;;;;;;;1.20;1.10;;;;;;;23.53;51.53;93599.78;5986540;23;20019;-92
2022/07/31 06:32:02;;;;;;;1.50;1.40;;;;;;;23.55;51.62;93593.72;5984618;23;20101;-92
2022/07/31 06:34:27;;;;;;;1.40;1.20;;;;;;;23.55;51.25;93593.72;6026294;23;20406;-91
2022/07/31 06:36:53;;;;;;;1.45;1.30;;;;;;;23.57;51.41;93596.69;6026307;23;20451;-92
2022/07/31 06:39:18;;;;;;;1.50;1.40;;;;;;;23.54;51.44;93598.50;6043962;23;20058;-92
2022/07/31 06:41:43;;;;;;;1.42;1.13;;;;;;;23.60;51.14;93597.63;6043379;23;20022;-93
2022/07/31 06:44:09;;;;;;;1.10;1.00;;;;;;;23.57;51.24;93596.69;6042467;23;20073;-94
2022/07/31 06:46:35;;;;;;;1.00;0.90;;;;;;;23.61;51.29;93596.31;6041731;23;20049;-92
2022/07/31 06:49:01;;;;;;;1.30;1.20;;;;;;;23.58;51.46;93596.16;6033548;23;20185;-92
2022/07/31 06:51:26;;;;;;;1.45;1.35;;;;;;;23.62;51.10;93601.31;6043860;23;20026;-92
2022/07/31 06:53:51;;;;;;;1.30;1.20;;;;;;;23.63;51.36;93600.03;6035903;23;20015;-94
2022/07/31 06:56:17;;;;;;;1.05;0.95;;;;;;;23.64;51.07;93604.25;6043087;23;20033;-94
2022/07/31 06:58:42;;;;;;;1.55;1.45;;;;;;;23.66;51.34;93603.72;6040525;23;20398;-93
2022/07/31 07:01:08;;;;;;;1.17;1.08;;;;;;;23.67;51.48;93605.22;6041567;23;20023;-94
2022/07/31 07:03:33;;;;;;;1.08;0.98;;;;;;;23.67;51.19;93600.44;6038799;23;20027;-93
2022/07/31 07:05:59;;;;;;;1.10;1.00;;;;;;;23.68;51.23;93593.63;6043431;23;20018;-93
2022/07/31 07:08:24;;;;;;;1.10;1.00;;;;;;;23.69;51.17;93597.88;6043468;23;20014;-93
2022/07/31 07:10:51;;;;;;;1.38;1.25;;;;;;;23.70;51.23;93587.56;6037752;23;20018;-92
2022/07/31 07:13:16;;;;;;;0.75;0.75;;;;;;;23.71;51.25;93598.06;6043014;23;20038;-92
2022/07/31 07:15:42;;;;;;;1.45;1.30;;;;;;;23.72;51.26;93601.56;6035421;23;20328;-92
2022/07/31 07:18:07;;;;;;;1.00;0.88;;;;;;;23.72;51.25;93593.28;6036336;23;20014;-93
2022/07/31 07:20:33;;;;;;;1.00;0.95;;;;;;;23.73;51.07;93598.28;6011357;23;20027;-93
2022/07/31 07:22:58;;;;;;;1.20;1.10;;;;;;;23.76;51.06;93593.69;6033113;23;20506;-94
2022/07/31 07:25:23;;;;;;;1.20;1.10;;;;;;;23.74;50.93;93593.50;5988891;23;20046;-93
2022/07/31 07:27:49;;;;;;;1.25;1.15;;;;;;;23.76;51.34;93596.44;5983849;23;20055;-91
2022/07/31 07:30:14;;;;;;;1.30;1.20;;;;;;;23.76;51.12;93583.38;5957392;23;20432;-93
2022/07/31 07:32:40;;;;;;;1.20;0.98;;;;;;;23.77;51.36;93579.34;5957001;23;20475;-92
2022/07/31 07:35:08;;;;;;;1.10;0.98;;;;;;;23.77;51.07;93584.13;5954963;23;20144;-93
2022/07/31 07:37:33;;;;;;;1.52;1.35;;;;;;;23.78;51.06;93591.13;5957737;23;20051;-92
2022/07/31 07:39:58;;;;;;;1.20;1.10;;;;;;;23.78;51.18;93589.09;5960055;23;20022;-94
2022/07/31 07:42:24;;;;;;;1.38;1.10;;;;;;;23.77;51.10;93584.88;5970298;23;20523;-92
2022/07/31 07:44:49;;;;;;;1.23;1.13;;;;;;;23.78;51.23;93585.59;5983043;23;20048;-94
2022/07/31 07:47:15;;;;;;;1.42;1.10;;;;;;;23.80;50.86;93578.25;5960419;23;20360;-92
2022/07/31 07:49:40;;;;;;;1.75;1.27;;;;;;;23.79;51.12;93587.09;5956876;23;20030;-93
2022/07/31 07:52:06;;;;;;;1.00;0.90;;;;;;;23.78;51.02;93582.84;6000553;23;20027;-93
2022/07/31 07:54:31;;;;;;;1.30;1.20;;;;;;;23.81;51.14;93584.53;6016553;23;20029;-93
2022/07/31 07:56:57;;;;;;;1.40;1.30;;;;;;;23.81;51.29;93585.28;6013691;23;20093;-93
2022/07/31 07:59:23;;;;;;;1.00;0.90;;;;;;;23.79;50.99;93578.81;6033850;23;20022;-94
2022/07/31 08:01:48;;;;;;;1.20;1.00;;;;;;;23.81;50.97;93579.75;6036669;23;20022;-93
2022/07/31 08:04:14;;;;;;;1.38;1.20;;;;;;;23.79;51.06;93576.78;6038030;23;20393;-92
2022/07/31 08:06:39;;;;;;;1.58;1.30;;;;;;;23.81;50.92;93577.00;6031816;23;20050;-93
2022/07/31 08:09:07;;;;;;;1.60;1.33;;;;;;;23.81;51.08;93565.19;6040055;23;20386;-93
2022/07/31 08:11:33;;;;;;;1.30;1.10;;;;;;;23.82;50.75;93574.94;6032603;23;20041;-93
2022/07/31 08:13:58;;;;;;;1.80;1.70;;;;;;;23.80;51.33;93581.03;6040692;23;20042;-93
2022/07/31 08:16:24;;;;;;;1.30;1.20;;;;;;;23.80;50.86;93577.53;6041371;23;20026;-94
2022/07/31 08:18:50;;;;;;;1.20;1.10;;;;;;;23.80;51.05;93580.28;6041898;23;20070;-93
2022/07/31 08:21:15;;;;;;;1.45;1.23;;;;;;;23.80;51.09;93581.03;6038234;23;20022;-93
2022/07/31 08:23:41;;;;;;;1.30;1.20;;;;;;;23.81;50.94;93579.75;6043415;23;20342;-93
2022/07/31 08:26:09;;;;;;;1.70;1.40;;;;;;;23.83;51.04;93573.66;6040425;23;20023;-93
2022/07/31 08:28:35;;;;;;;1.48;1.30;;;;;;;23.80;50.98;93577.53;6041428;23;20022;-93
2022/07/31 08:31:02;;;;;;;1.40;1.20;;;;;;;23.81;50.94;93573.47;6041075;23;20054;-93
2022/07/31 08:33:27;;;;;;;1.50;1.15;;;;;;;23.79;50.99;93576.78;6044339;23;20401;-93
2022/07/31 08:35:53;;;;;;;1.35;1.25;;;;;;;23.82;50.89;93575.69;6043450;23;20018;-93
2022/07/31 08:38:18;;;;;;;1.55;1.38;;;;;;;23.82;51.01;93569.41;6042241;23;20022;-92
2022/07/31 08:40:44;;;;;;;1.38;1.15;;;;;;;23.80;51.01;93569.25;6037546;23;20173;-93
2022/07/31 08:43:11;;;;;;;1.42;1.30;;;;;;;23.78;51.09;93572.53;6027945;23;20021;-93
2022/07/31 08:45:39;;;;;;;1.70;1.52;;;;;;;23.80;50.93;93574.75;6041499;23;20122;-93
2022/07/31 08:48:05;;;;;;;1.60;1.30;;;;;;;23.80;50.82;93572.75;6041891;23;20022;-92
2022/07/31 08:50:31;;;;;;;1.52;1.30;;;;;;;23.80;51.17;93563.72;6039457;23;20053;-93
2022/07/31 08:52:56;;;;;;;1.10;1.00;;;;;;;23.79;51.23;93565.00;6063493;23;20007;-93
2022/07/31 08:55:22;;;;;;;1.40;1.30;;;;;;;23.79;51.35;93560.22;6041785;23;20026;-94
2022/07/31 08:57:48;;;;;;;1.25;1.15;;;;;;;23.80;51.15;93566.47;6032918;23;20426;-93
2022/07/31 09:00:18;;;;;;;1.20;1.10;;;;;;;23.80;51.20;93561.69;6038707;23;20026;-92
2022/07/31 09:02:47;;;;;;;;;;;;;;;23.77;51.35;93564.81;6038710;23;20077;-95
2022/07/31 09:05:12;;;;;;;1.30;1.13;;;;;;;23.79;51.28;93568.50;6103439;23;19913;-92
2022/07/31 09:07:38;;;;;;;1.70;1.52;;;;;;;23.80;51.11;93563.72;6041307;23;20263;-90
2022/07/31 09:10:21;;;;;;;1.48;1.33;;;;;;;23.76;51.36;93566.81;6040618;23;20462;-91
2022/07/31 09:12:46;;;;;;;1.65;1.50;;;;;;;23.81;51.26;93560.41;6021828;23;20022;-91
2022/07/31 09:15:20;;;;;;;1.08;0.98;;;;;;;23.77;51.23;93562.78;6041006;23;20018;-91
2022/07/31 09:17:48;;;;;;;1.70;1.60;;;;;;;23.80;51.35;93553.41;6065877;23;20032;-91
2022/07/31 09:20:20;;;;;;;1.65;1.45;;;;;;;23.78;51.23;93555.25;6041210;23;20026;-91
2022/07/31 09:22:47;;;;;;;1.45;1.33;;;;;;;23.79;51.34;93560.22;6037682;23;20019;-90
2022/07/31 09:25:17;;;;;;;1.63;1.50;;;;;;;23.77;50.97;93548.97;6041441;23;20032;-90
2022/07/31 09:27:43;;;;;;;1.50;1.40;;;;;;;23.78;51.20;93550.47;6040759;23;20093;-90
2022/07/31 09:30:09;;;;;;;1.60;1.50;;;;;;;23.79;51.22;93553.97;6041406;23;20030;-90
2022/07/31 09:32:34;;;;;;;1.40;1.20;;;;;;;23.78;51.22;93544.94;6039546;23;20664;-91
2022/07/31 09:35:10;;;;;;;2.13;1.50;;;;;;;23.76;51.48;93547.50;6036333;23;20015;-90
2022/07/31 09:37:36;;;;;;;1.45;1.35;;;;;;;23.80;51.13;93553.41;6029393;23;20014;-91
2022/07/31 09:40:01;;;;;;;1.63;1.50;;;;;;;23.79;51.31;93545.69;6038370;23;20354;-91
2022/07/31 09:42:41;;;;;;;1.73;1.60;;;;;;;23.78;51.15;93549.72;6041925;23;20019;-91
2022/07/31 09:45:18;;;;;;;2.17;1.65;;;;;;;23.77;51.49;93551.00;6041906;23;20152;-91
2022/07/31 09:47:43;;;;;;;1.60;1.42;;;;;;;23.80;51.21;93541.63;6033029;23;20038;-91
2022/07/31 09:50:09;;;;;;;1.67;1.50;;;;;;;23.79;51.17;93540.16;6041155;23;20445;-91
2022/07/31 09:52:34;;;;;;;2.10;1.50;;;;;;;23.80;51.26;93534.09;6011062;23;20046;-91
2022/07/31 09:55:11;;;;;;;1.25;1.00;;;;;;;23.77;51.13;93534.44;6024887;23;20015;-90
2022/07/31 09:57:38;;;;;;;1.70;1.20;;;;;;;23.79;51.37;93538.13;6032920;23;20023;-90
2022/07/31 10:00:08;;;;;;;1.48;1.33;;;;;;;23.80;51.23;93525.81;5987606;23;20023;-92
2022/07/31 10:02:34;;;;;;;1.70;1.50;;;;;;;23.79;51.40;93526.34;5989302;23;20530;-91
2022/07/31 10:05:00;;;;;;;1.48;1.10;;;;;;;23.79;51.40;93529.13;6024124;23;20042;-91
2022/07/31 10:07:27;;;;;;;3.15;1.30;;;;;;;23.79;51.17;93537.41;6033036;23;20443;-90
2022/07/31 10:09:55;;;;;;;1.73;1.63;;;;;;;23.78;51.29;93530.41;6032697;23;20403;-90
2022/07/31 10:12:21;;;;;;;2.38;1.38;;;;;;;23.79;51.24;93529.84;5989303;23;20019;-92
2022/07/31 10:14:46;;;;;;;1.65;1.45;;;;;;;23.79;51.33;93531.88;5984743;23;20358;-91
2022/07/31 10:17:12;;;;;;;1.80;1.58;;;;;;;23.78;51.20;93520.09;5985110;23;20011;-91
2022/07/31 10:19:40;;;;;;;3.28;1.63;;;;;;;23.79;51.18;93524.34;5982835;23;20325;-92
2022/07/31 10:22:06;;;;;;;1.50;1.40;;;;;;;23.79;51.04;93521.56;5949105;23;20020;-92
2022/07/31 10:24:32;;;;;;;1.50;1.33;;;;;;;23.78;51.06;93517.34;6004802;23;20538;-92
2022/07/31 10:26:58;;;;;;;1.60;1.50;;;;;;;23.79;51.25;93523.59;6010794;23;20050;-91
2022/07/31 10:29:29;;;;;;;2.78;1.60;;;;;;;23.77;51.17;93518.63;6036935;23;20443;-93
2022/07/31 10:31:55;;;;;;;1.70;1.60;;;;;;;23.77;51.30;93513.09;6012105;23;20058;-92
2022/07/31 10:34:22;;;;;;;1.92;1.52;;;;;;;23.78;51.22;93520.09;6034781;23;20027;-91
2022/07/31 10:36:48;;;;;;;1.70;1.60;;;;;;;23.79;51.11;93507.78;6009721;23;20343;-91
2022/07/31 10:39:32;;;;;;;2.00;1.48;;;;;;;23.78;51.14;93514.56;6030289;23;20023;-91
2022/07/31 10:42:14;;;;;;;1.65;1.40;;;;;;;23.76;51.20;93522.66;6033221;23;20469;-91
2022/07/31 10:44:54;;;;;;;1.50;1.30;;;;;;;23.78;51.22;93522.13;6023339;23;20018;-93
2022/07/31 10:47:20;;;;;;;1.75;1.58;;;;;;;23.79;51.27;93520.84;6013491;23;20039;-92
2022/07/31 10:49:48;;;;;;;2.13;1.55;;;;;;;23.78;51.34;93511.06;6033641;23;20022;-92
2022/07/31 10:52:25;;;;;;;2.10;1.65;;;;;;;23.77;51.41;93515.13;6012311;23;20015;-93
2022/07/31 10:54:56;;;;;;;2.00;1.60;;;;;;;23.79;51.12;93518.81;6012481;23;20027;-91
2022/07/31 10:57:23;;;;;;;1.40;1.20;;;;;;;23.79;51.11;93501.50;6054947;23;20019;-91
2022/07/31 10:59:49;;;;;;;1.60;1.30;;;;;;;23.79;51.04;93510.53;6042328;23;20498;-91
2022/07/31 11:02:29;;;;;;;1.70;1.50;;;;;;;23.76;51.18;93514.38;6043163;23;20033;-91
2022/07/31 11:05:14;;;;;;;1.83;1.60;;;;;;;23.76;51.11;93511.63;6043235;23;20093;-90
2022/07/31 11:07:43;;;;;;;1.90;1.70;;;;;;;23.77;51.36;93502.06;6031400;23;20019;-92
2022/07/31 11:10:09;;;;;;;1.77;1.63;;;;;;;23.78;51.25;93511.81;6040117;23;20082;-91
2022/07/31 11:12:35;;;;;;;1.52;1.42;;;;;;;23.79;51.24;93512.56;6035644;23;20055;-92
2022/07/31 11:15:00;;;;;;;1.85;1.40;;;;;;;23.78;51.20;93492.50;5985423;23;20375;-91
2022/07/31 11:17:36;;;;;;;2.22;1.75;;;;;;;23.77;51.34;93501.31;6037713;23;20030;-93
2022/07/31 11:20:02;;;;;;;1.67;1.50;;;;;;;23.79;51.20;93512.56;5987517;23;20022;-92
2022/07/31 11:22:27;;;;;;;1.63;1.52;;;;;;;23.79;51.22;93504.28;6034488;23;20019;-92
2022/07/31 11:24:57;;;;;;;2.17;1.95;;;;;;;23.79;51.25;93516.06;5983181;23;20034;-92
2022/07/31 11:27:30;;;;;;;2.47;1.80;;;;;;;23.77;51.31;93507.56;6024349;23;20043;-93
2022/07/31 11:30:03;;;;;;;1.73;1.50;;;;;;;23.76;51.40;93506.09;6035470;23;21131;-91
2022/07/31 11:32:28;;;;;;;1.65;1.45;;;;;;;23.78;51.18;93511.81;5989821;23;20025;-92